Terminal Aerodrome Forecast
Issued by NWS Wilmington, OH

Current Version | Previous Version | Graphics & Text | Print | Product List | Glossary On
Versions: 1 2 3 4 5 6 7 8 9 10 11 12 13 14 15 16 17 18 19 20 21 22 23 24
734
FTUS41 KILN 241426 AAB
TAFCVG
TAF AMD
KCVG 241426Z 2414/2518 29010KT P6SM OVC008
     FM241700 29010KT P6SM OVC015
     FM242200 23004KT P6SM BKN025
     FM250000 19005KT P6SM SCT025 BKN120
     FM251300 21010KT P6SM BKN040=

USA.gov is the U.S. government's official web portal to all federal, state and local government web resources and services.